History for IPEMBROK16

Hamilton, Pembroke, PEMBROKE — Current Conditions
Daily Summary for November 12, 2018
  Current: High: Low: Average:
Temperature: 70.2°F 73.1°F 66.1°F 69.6°F
Dew Point: 65.1°F 68.4°F 64.5°F 66.1°F
Humidity: 84% 96% 77% 91%
Wind Speed: 0.0mph 15.0mph - 1.3mph
Wind Gust: 0.0mph 18.0mph - -
Wind: NNE - - NNE
Pressure: 30.27in 30.28in 30.13in -
Precipitation: 0.24in      
Statistics for the rest of the month
    High: Low: Average:
Temperature:   80.2°F 66.1°F 74.7°F
Dew Point:   73.8°F 64.5°F 70.8°F
Humidity:   97.0% 77.0% 89.4%
Wind Speed:   18.0mph from the SSW - 1.3mph
Wind Gust:   19.0mph from the ESE - -
Wind:   - - SSE
Pressure:   30.28in 29.98in -
Precipitation:   0.41in    
IPEMBROK16 Weather Graph
Tabular Data for November 12, 2018
Time Temp. Dew Point Pressure Wind Gust Humidity Rainfall
00:04 71.8°F 68.0°F 30.13in 0.0mph 88% 0.00in
00:09 71.7°F 67.9°F 30.13in 0.0mph 88% 0.00in
00:14 71.5°F 68.1°F 30.13in 0.0mph 89% 0.00in
00:19 71.5°F 68.1°F 30.13in 0.0mph 89% 0.00in
00:24 71.5°F 68.4°F 30.13in 0.0mph 90% 0.00in
00:29 71.5°F 68.4°F 30.13in 0.0mph 90% 0.00in
00:34 71.2°F 68.4°F 30.13in 0.0mph 91% 0.00in
00:39 70.8°F 68.4°F 30.13in 8.0mph 92% 0.00in
00:44 70.4°F 68.0°F 30.13in 8.0mph 92% 0.00in
00:49 70.2°F 68.1°F 30.13in 9.0mph 93% 0.00in
00:53 70.2°F 68.1°F 30.13in 9.0mph 93% 0.00in
00:58 69.9°F 67.8°F 30.13in 7.0mph 93% 0.00in
01:04 69.7°F 67.6°F 30.13in 5.0mph 93% 0.00in
01:09 69.6°F 67.5°F 30.13in 1.0mph 93% 0.00in
01:14 69.6°F 67.8°F 30.13in 0.0mph 94% 0.00in
01:19 69.6°F 67.8°F 30.13in 0.0mph 94% 0.00in
01:24 69.6°F 67.8°F 30.13in 4.0mph 94% 0.04in
01:29 69.5°F 67.7°F 30.13in 4.0mph 94% 0.28in
01:34 69.3°F 67.5°F 30.13in 5.0mph 94% 0.17in
01:39 69.2°F 67.4°F 30.13in 5.0mph 94% 0.25in
01:44 69.2°F 67.4°F 30.13in 1.0mph 94% 0.09in
01:49 69.3°F 67.5°F 30.13in 6.0mph 94% 0.06in
01:54 69.3°F 67.5°F 30.14in 4.0mph 94% 0.06in
01:59 69.3°F 67.8°F 30.13in 4.0mph 95% 0.05in
02:04 69.2°F 67.7°F 30.14in 0.0mph 95% 0.00in
02:09 69.1°F 67.6°F 30.14in 0.0mph 95% 0.00in
02:14 68.8°F 67.3°F 30.14in 0.0mph 95% 0.00in
02:19 68.6°F 67.1°F 30.14in 5.0mph 95% 0.00in
02:24 68.6°F 67.1°F 30.14in 5.0mph 95% 0.00in
02:29 68.7°F 67.2°F 30.14in 2.0mph 95% 1.27in
02:34 68.7°F 67.2°F 30.14in 0.0mph 95% 0.20in
02:39 68.8°F 67.3°F 30.14in 10.0mph 95% 0.12in
02:44 69.1°F 67.6°F 30.14in 9.0mph 95% 0.08in
02:49 69.1°F 67.6°F 30.14in 13.0mph 95% 0.10in
02:54 69.1°F 67.9°F 30.14in 13.0mph 96% 0.08in
02:59 69.1°F 67.6°F 30.14in 13.0mph 95% 0.05in
03:04 68.7°F 67.2°F 30.14in 10.0mph 95% 0.00in
03:09 68.6°F 67.1°F 30.14in 11.0mph 95% 0.00in
03:14 68.6°F 67.1°F 30.14in 11.0mph 95% 0.00in
03:19 68.6°F 67.1°F 30.14in 9.0mph 95% 0.00in
03:23 68.6°F 67.1°F 30.14in 9.0mph 95% 0.00in
03:29 68.6°F 67.1°F 30.14in 9.0mph 95% 0.00in
03:34 68.6°F 67.1°F 30.14in 9.0mph 95% 0.00in
03:39 68.5°F 67.0°F 30.14in 9.0mph 95% 0.00in
03:44 68.3°F 66.8°F 30.14in 9.0mph 95% 0.00in
03:49 68.4°F 66.9°F 30.14in 9.0mph 95% 0.00in
03:54 68.6°F 67.1°F 30.14in 10.0mph 95% 0.00in
03:59 68.6°F 67.1°F 30.14in 10.0mph 95% 0.00in
04:04 68.6°F 66.8°F 30.14in 7.0mph 94% 0.00in
04:09 68.7°F 66.9°F 30.15in 9.0mph 94% 0.00in
04:13 68.7°F 66.9°F 30.15in 9.0mph 94% 0.00in
04:19 68.6°F 66.8°F 30.15in 11.0mph 94% 0.00in
04:24 68.8°F 67.0°F 30.15in 11.0mph 94% 0.00in
04:29 68.7°F 66.9°F 30.15in 9.0mph 94% 0.00in
04:34 68.4°F 66.6°F 30.15in 7.0mph 94% 0.00in
04:39 68.3°F 66.8°F 30.16in 10.0mph 95% 0.00in
04:44 68.3°F 66.8°F 30.16in 15.0mph 95% 0.00in
04:49 68.1°F 66.6°F 30.16in 15.0mph 95% 0.05in
04:54 68.0°F 66.5°F 30.16in 16.0mph 95% 0.05in
04:59 67.9°F 66.4°F 30.16in 12.0mph 95% 0.04in
05:04 67.6°F 66.1°F 30.17in 18.0mph 95% 0.00in
05:09 67.5°F 66.0°F 30.17in 18.0mph 95% 0.00in
05:13 67.4°F 65.9°F 30.17in 13.0mph 95% 0.00in
05:19 67.2°F 65.7°F 30.17in 12.0mph 95% 0.00in
05:24 67.2°F 65.7°F 30.18in 9.0mph 95% 0.00in
05:29 67.2°F 66.0°F 30.18in 9.0mph 96% 0.00in
05:34 67.1°F 65.9°F 30.19in 15.0mph 96% 0.00in
05:39 66.8°F 65.3°F 30.19in 16.0mph 95% 0.00in
05:44 66.7°F 65.2°F 30.19in 16.0mph 95% 0.00in
05:49 66.5°F 65.3°F 30.19in 11.0mph 96% 0.00in
05:54 66.4°F 65.2°F 30.19in 11.0mph 96% 0.00in
05:59 66.5°F 65.3°F 30.19in 8.0mph 96% 0.00in
06:04 66.5°F 65.3°F 30.19in 11.0mph 96% 0.00in
06:09 66.2°F 64.7°F 30.20in 12.0mph 95% 0.00in
06:14 66.1°F 64.6°F 30.20in 12.0mph 95% 0.00in
06:19 66.3°F 64.8°F 30.20in 10.0mph 95% 0.00in
06:24 66.5°F 65.0°F 30.20in 10.0mph 95% 0.00in
06:29 66.6°F 65.1°F 30.20in 9.0mph 95% 0.00in
06:34 66.6°F 65.1°F 30.20in 9.0mph 95% 0.00in
06:39 66.7°F 65.2°F 30.21in 11.0mph 95% 0.00in
06:44 66.7°F 64.9°F 30.21in 11.0mph 94% 0.00in
06:49 66.9°F 65.1°F 30.22in 12.0mph 94% 0.00in
06:54 66.7°F 64.9°F 30.22in 11.0mph 94% 0.00in
06:59 66.7°F 64.9°F 30.22in 11.0mph 94% 0.00in
07:04 66.8°F 65.0°F 30.22in 14.0mph 94% 0.00in
07:09 66.5°F 64.7°F 30.22in 14.0mph 94% 0.00in
07:14 66.5°F 64.7°F 30.22in 10.0mph 94% 0.00in
07:17 66.5°F 64.7°F 30.23in 8.0mph 94% 0.00in
07:24 66.7°F 64.9°F 30.23in 12.0mph 94% 0.00in
07:29 66.8°F 64.7°F 30.24in 12.0mph 93% 0.00in
07:34 66.9°F 64.8°F 30.24in 14.0mph 93% 0.00in
07:35 66.9°F 64.8°F 30.24in 14.0mph 93% 0.00in
07:44 67.0°F 64.6°F 30.24in 11.0mph 92% 0.00in
07:47 66.9°F 64.5°F 30.24in 11.0mph 92% 0.00in
07:54 66.9°F 64.5°F 30.24in 7.0mph 92% 0.00in
07:59 67.0°F 64.6°F 30.24in 7.0mph 92% 0.00in
08:04 67.0°F 64.6°F 30.24in 2.0mph 92% 0.00in
08:08 67.1°F 64.7°F 30.24in 7.0mph 92% 0.00in
08:14 67.3°F 64.9°F 30.25in 10.0mph 92% 0.00in
08:19 67.4°F 65.0°F 30.25in 10.0mph 92% 0.00in
08:23 67.7°F 65.0°F 30.25in 10.0mph 91% 0.00in
08:29 68.0°F 65.3°F 30.25in 8.0mph 91% 0.00in
08:34 68.3°F 65.2°F 30.25in 8.0mph 90% 0.00in
08:39 68.7°F 65.3°F 30.25in 8.0mph 89% 0.00in
08:44 68.8°F 65.1°F 30.26in 8.0mph 88% 0.00in
08:49 68.8°F 65.1°F 30.26in 7.0mph 88% 0.00in
08:53 69.2°F 65.8°F 30.26in 10.0mph 89% 0.00in
08:59 69.0°F 65.6°F 30.26in 10.0mph 89% 0.00in
09:04 68.8°F 65.4°F 30.26in 8.0mph 89% 0.00in
09:09 68.5°F 65.1°F 30.27in 13.0mph 89% 0.00in
09:11 68.5°F 65.4°F 30.27in 13.0mph 90% 0.00in
09:19 67.9°F 64.9°F 30.27in 12.0mph 90% 0.00in
09:24 67.9°F 64.9°F 30.27in 6.0mph 90% 0.00in
09:29 67.8°F 65.1°F 30.27in 8.0mph 91% 0.00in
09:34 67.7°F 65.0°F 30.28in 9.0mph 91% 0.00in
09:39 67.6°F 64.9°F 30.28in 12.0mph 91% 0.00in
09:44 67.8°F 65.1°F 30.28in 12.0mph 91% 0.00in
09:48 67.8°F 65.1°F 30.28in 8.0mph 91% 0.00in
09:54 68.0°F 65.0°F 30.28in 8.0mph 90% 0.00in
09:59 68.1°F 65.1°F 30.28in 10.0mph 90% 0.00in
10:04 68.3°F 65.2°F 30.28in 10.0mph 90% 0.00in
10:08 68.7°F 65.3°F 30.28in 8.0mph 89% 0.00in
10:14 69.6°F 66.2°F 30.27in 8.0mph 89% 0.00in
10:17 70.3°F 66.6°F 30.27in 8.0mph 88% 0.00in
10:24 70.4°F 66.0°F 30.27in 9.0mph 86% 0.00in
10:29 70.7°F 66.3°F 30.27in 9.0mph 86% 0.00in
10:34 70.4°F 65.7°F 30.27in 10.0mph 85% 0.00in
10:39 70.8°F 66.1°F 30.27in 11.0mph 85% 0.00in
10:44 71.2°F 66.1°F 30.27in 11.0mph 84% 0.00in
10:49 71.7°F 66.3°F 30.27in 8.0mph 83% 0.00in
10:54 71.9°F 66.1°F 30.27in 10.0mph 82% 0.00in
10:59 72.2°F 66.0°F 30.27in 6.0mph 81% 0.00in
11:04 72.7°F 65.8°F 30.27in 8.0mph 79% 0.00in
11:09 72.8°F 65.5°F 30.27in 8.0mph 78% 0.00in
11:13 72.6°F 65.0°F 30.27in 10.0mph 77% 0.00in
11:19 72.5°F 65.2°F 30.27in 12.0mph 78% 0.00in
11:24 73.0°F 66.1°F 30.27in 9.0mph 79% 0.00in
11:29 72.4°F 65.1°F 30.27in 4.0mph 78% 0.00in
11:34 71.2°F 64.7°F 30.27in 7.0mph 80% 0.00in
11:39 70.7°F 64.9°F 30.27in 7.0mph 82% 0.00in
11:44 70.7°F 64.9°F 30.27in 6.0mph 82% 0.00in
11:49 70.7°F 64.9°F 30.27in 0.0mph 82% 0.00in
11:54 70.7°F 64.9°F 30.27in 0.0mph 82% 0.00in
11:59 70.7°F 64.9°F 30.27in 8.0mph 82% 0.00in
12:04 70.6°F 64.8°F 30.27in 8.0mph 82% 0.00in
12:09 70.3°F 65.2°F 30.27in 0.0mph 84% 0.00in
12:10 70.2°F 65.1°F 30.27in 0.0mph 84% 0.00in
Comma Delimited File
Powered by Weather Underground, Inc.